sensor_id;sensor_type;location;lat;lon;timestamp;temperature;humidity
27671;DHT22;15077;49.704;9.908;2023-07-24T00:00:44;23.80;47.90
27671;DHT22;15077;49.704;9.908;2023-07-24T00:03:10;23.70;47.90
27671;DHT22;15077;49.704;9.908;2023-07-24T00:05:36;23.70;48.00
27671;DHT22;15077;49.704;9.908;2023-07-24T00:08:02;23.70;48.00
27671;DHT22;15077;49.704;9.908;2023-07-24T00:10:27;23.70;48.10
27671;DHT22;15077;49.704;9.908;2023-07-24T00:12:53;23.70;48.20
27671;DHT22;15077;49.704;9.908;2023-07-24T00:15:19;23.70;48.10
27671;DHT22;15077;49.704;9.908;2023-07-24T00:17:45;23.60;48.20
27671;DHT22;15077;49.704;9.908;2023-07-24T00:20:11;23.60;48.20
27671;DHT22;15077;49.704;9.908;2023-07-24T00:22:37;23.50;48.30
27671;DHT22;15077;49.704;9.908;2023-07-24T00:25:03;23.50;48.20
27671;DHT22;15077;49.704;9.908;2023-07-24T00:27:31;23.50;48.30
27671;DHT22;15077;49.704;9.908;2023-07-24T00:29:57;23.50;48.30
27671;DHT22;15077;49.704;9.908;2023-07-24T00:32:22;23.50;48.50
27671;DHT22;15077;49.704;9.908;2023-07-24T00:34:49;23.50;48.40
27671;DHT22;15077;49.704;9.908;2023-07-24T00:37:16;23.50;48.60
27671;DHT22;15077;49.704;9.908;2023-07-24T00:39:42;23.40;48.60
27671;DHT22;15077;49.704;9.908;2023-07-24T00:42:07;23.40;48.60
27671;DHT22;15077;49.704;9.908;2023-07-24T00:44:33;23.40;48.60
27671;DHT22;15077;49.704;9.908;2023-07-24T00:46:59;23.30;48.70
27671;DHT22;15077;49.704;9.908;2023-07-24T00:49:25;23.30;48.70
27671;DHT22;15077;49.704;9.908;2023-07-24T00:51:50;23.20;48.80
27671;DHT22;15077;49.704;9.908;2023-07-24T00:54:18;23.20;49.10
27671;DHT22;15077;49.704;9.908;2023-07-24T00:56:45;23.20;49.10
27671;DHT22;15077;49.704;9.908;2023-07-24T00:59:11;23.10;49.20
27671;DHT22;15077;49.704;9.908;2023-07-24T01:01:38;23.00;49.40
27671;DHT22;15077;49.704;9.908;2023-07-24T01:04:07;23.00;49.40
27671;DHT22;15077;49.704;9.908;2023-07-24T01:06:33;22.90;49.60
27671;DHT22;15077;49.704;9.908;2023-07-24T01:08:59;22.90;49.70
27671;DHT22;15077;49.704;9.908;2023-07-24T01:11:30;22.80;49.90
27671;DHT22;15077;49.704;9.908;2023-07-24T01:14:24;22.80;50.30
27671;DHT22;15077;49.704;9.908;2023-07-24T01:17:16;22.70;50.20
27671;DHT22;15077;49.704;9.908;2023-07-24T01:19:55;22.70;51.30
27671;DHT22;15077;49.704;9.908;2023-07-24T01:25:23;22.60;51.00
27671;DHT22;15077;49.704;9.908;2023-07-24T01:27:57;22.60;51.20
27671;DHT22;15077;49.704;9.908;2023-07-24T01:30:24;22.50;51.10
27671;DHT22;15077;49.704;9.908;2023-07-24T01:32:51;22.50;51.10
27671;DHT22;15077;49.704;9.908;2023-07-24T01:35:16;22.50;51.20
27671;DHT22;15077;49.704;9.908;2023-07-24T01:37:43;22.50;51.30
27671;DHT22;15077;49.704;9.908;2023-07-24T01:40:13;22.50;51.30
27671;DHT22;15077;49.704;9.908;2023-07-24T01:42:42;22.40;51.50
27671;DHT22;15077;49.704;9.908;2023-07-24T01:45:09;22.40;51.50
27671;DHT22;15077;49.704;9.908;2023-07-24T01:47:38;22.40;51.50
27671;DHT22;15077;49.704;9.908;2023-07-24T01:50:05;22.40;51.50
27671;DHT22;15077;49.704;9.908;2023-07-24T01:52:32;22.40;51.80
27671;DHT22;15077;49.704;9.908;2023-07-24T01:54:59;22.40;52.00
27671;DHT22;15077;49.704;9.908;2023-07-24T01:57:26;22.30;52.00
27671;DHT22;15077;49.704;9.908;2023-07-24T01:59:53;22.30;52.00
27671;DHT22;15077;49.704;9.908;2023-07-24T02:02:19;22.20;52.10
27671;DHT22;15077;49.704;9.908;2023-07-24T02:04:46;22.10;52.20
27671;DHT22;15077;49.704;9.908;2023-07-24T02:07:13;22.10;52.50
27671;DHT22;15077;49.704;9.908;2023-07-24T02:09:40;22.10;52.50
27671;DHT22;15077;49.704;9.908;2023-07-24T02:12:06;22.00;52.60
27671;DHT22;15077;49.704;9.908;2023-07-24T02:14:33;22.00;53.10
27671;DHT22;15077;49.704;9.908;2023-07-24T02:17:00;21.90;53.10
27671;DHT22;15077;49.704;9.908;2023-07-24T02:19:28;21.90;53.50
27671;DHT22;15077;49.704;9.908;2023-07-24T02:21:55;21.90;53.40
27671;DHT22;15077;49.704;9.908;2023-07-24T02:24:21;21.80;53.20
27671;DHT22;15077;49.704;9.908;2023-07-24T02:26:47;21.80;53.20
27671;DHT22;15077;49.704;9.908;2023-07-24T02:29:14;21.80;53.60
27671;DHT22;15077;49.704;9.908;2023-07-24T02:31:42;21.80;53.90
27671;DHT22;15077;49.704;9.908;2023-07-24T02:34:09;21.80;53.60
27671;DHT22;15077;49.704;9.908;2023-07-24T02:36:35;21.70;53.70
27671;DHT22;15077;49.704;9.908;2023-07-24T02:39:01;21.70;53.90
27671;DHT22;15077;49.704;9.908;2023-07-24T02:41:28;21.70;54.00
27671;DHT22;15077;49.704;9.908;2023-07-24T02:43:55;21.70;54.30
27671;DHT22;15077;49.704;9.908;2023-07-24T02:46:21;21.70;54.20
27671;DHT22;15077;49.704;9.908;2023-07-24T02:48:49;21.70;54.40
27671;DHT22;15077;49.704;9.908;2023-07-24T02:51:17;21.70;54.50
27671;DHT22;15077;49.704;9.908;2023-07-24T02:53:44;21.70;54.80
27671;DHT22;15077;49.704;9.908;2023-07-24T02:56:11;21.70;55.00
27671;DHT22;15077;49.704;9.908;2023-07-24T02:58:39;21.70;54.80
27671;DHT22;15077;49.704;9.908;2023-07-24T03:01:08;21.70;54.60
27671;DHT22;15077;49.704;9.908;2023-07-24T03:03:35;21.60;54.70
27671;DHT22;15077;49.704;9.908;2023-07-24T03:06:02;21.70;54.60
27671;DHT22;15077;49.704;9.908;2023-07-24T03:08:29;21.70;54.40
27671;DHT22;15077;49.704;9.908;2023-07-24T03:10:59;21.70;54.60
27671;DHT22;15077;49.704;9.908;2023-07-24T03:13:27;21.70;54.50
27671;DHT22;15077;49.704;9.908;2023-07-24T03:15:56;21.70;54.50
27671;DHT22;15077;49.704;9.908;2023-07-24T03:18:27;21.70;54.70
27671;DHT22;15077;49.704;9.908;2023-07-24T03:20:53;21.70;54.80
27671;DHT22;15077;49.704;9.908;2023-07-24T03:23:23;21.70;54.70
27671;DHT22;15077;49.704;9.908;2023-07-24T03:25:51;21.70;55.00
27671;DHT22;15077;49.704;9.908;2023-07-24T03:28:19;21.70;54.80
27671;DHT22;15077;49.704;9.908;2023-07-24T03:30:46;21.70;54.70
27671;DHT22;15077;49.704;9.908;2023-07-24T03:33:13;21.70;54.60
27671;DHT22;15077;49.704;9.908;2023-07-24T03:35:40;21.60;54.60
27671;DHT22;15077;49.704;9.908;2023-07-24T03:38:06;21.70;54.40
27671;DHT22;15077;49.704;9.908;2023-07-24T03:40:34;21.70;54.50
27671;DHT22;15077;49.704;9.908;2023-07-24T03:43:01;21.70;54.50
27671;DHT22;15077;49.704;9.908;2023-07-24T03:45:27;21.80;54.50
27671;DHT22;15077;49.704;9.908;2023-07-24T03:47:54;21.80;54.40
27671;DHT22;15077;49.704;9.908;2023-07-24T03:50:20;21.80;54.40
27671;DHT22;15077;49.704;9.908;2023-07-24T03:52:46;21.90;54.50
27671;DHT22;15077;49.704;9.908;2023-07-24T03:55:12;21.90;54.30
27671;DHT22;15077;49.704;9.908;2023-07-24T03:57:39;21.80;54.30
27671;DHT22;15077;49.704;9.908;2023-07-24T04:00:06;21.90;54.40
27671;DHT22;15077;49.704;9.908;2023-07-24T04:02:34;21.90;54.30
27671;DHT22;15077;49.704;9.908;2023-07-24T04:05:01;21.90;54.40
27671;DHT22;15077;49.704;9.908;2023-07-24T04:07:26;21.90;54.30
27671;DHT22;15077;49.704;9.908;2023-07-24T04:09:52;21.90;54.40
27671;DHT22;15077;49.704;9.908;2023-07-24T04:12:19;21.90;54.30
27671;DHT22;15077;49.704;9.908;2023-07-24T04:14:46;21.90;54.30
27671;DHT22;15077;49.704;9.908;2023-07-24T04:17:15;21.90;54.20
27671;DHT22;15077;49.704;9.908;2023-07-24T04:19:42;21.90;54.70
27671;DHT22;15077;49.704;9.908;2023-07-24T04:22:08;21.90;54.50
27671;DHT22;15077;49.704;9.908;2023-07-24T04:24:33;22.00;54.40
27671;DHT22;15077;49.704;9.908;2023-07-24T04:26:59;22.00;54.50
27671;DHT22;15077;49.704;9.908;2023-07-24T04:29:25;22.00;54.70
27671;DHT22;15077;49.704;9.908;2023-07-24T04:31:51;21.90;54.70
27671;DHT22;15077;49.704;9.908;2023-07-24T04:34:17;21.90;54.50
27671;DHT22;15077;49.704;9.908;2023-07-24T04:36:43;21.90;54.90
27671;DHT22;15077;49.704;9.908;2023-07-24T04:39:09;21.90;55.20
27671;DHT22;15077;49.704;9.908;2023-07-24T04:41:34;21.90;55.20
27671;DHT22;15077;49.704;9.908;2023-07-24T04:44:00;21.90;55.30
27671;DHT22;15077;49.704;9.908;2023-07-24T04:46:26;21.90;55.40
27671;DHT22;15077;49.704;9.908;2023-07-24T04:48:51;21.90;55.80
27671;DHT22;15077;49.704;9.908;2023-07-24T04:51:17;21.90;55.80
27671;DHT22;15077;49.704;9.908;2023-07-24T04:53:44;21.90;56.40
27671;DHT22;15077;49.704;9.908;2023-07-24T04:56:10;21.90;56.40
27671;DHT22;15077;49.704;9.908;2023-07-24T04:58:36;21.90;56.90
27671;DHT22;15077;49.704;9.908;2023-07-24T05:01:03;21.90;56.80
27671;DHT22;15077;49.704;9.908;2023-07-24T05:03:29;21.90;56.80
27671;DHT22;15077;49.704;9.908;2023-07-24T05:05:56;22.00;56.90
27671;DHT22;15077;49.704;9.908;2023-07-24T05:08:23;22.00;56.90
27671;DHT22;15077;49.704;9.908;2023-07-24T05:10:55;22.00;57.10
27671;DHT22;15077;49.704;9.908;2023-07-24T05:13:22;22.00;57.20
27671;DHT22;15077;49.704;9.908;2023-07-24T05:15:48;22.10;57.10
27671;DHT22;15077;49.704;9.908;2023-07-24T05:18:14;22.10;57.50
27671;DHT22;15077;49.704;9.908;2023-07-24T05:20:44;22.10;57.60
27671;DHT22;15077;49.704;9.908;2023-07-24T05:23:14;22.20;58.20
27671;DHT22;15077;49.704;9.908;2023-07-24T05:25:40;22.20;58.10
27671;DHT22;15077;49.704;9.908;2023-07-24T05:28:06;22.20;58.20
27671;DHT22;15077;49.704;9.908;2023-07-24T05:30:32;22.30;58.20
27671;DHT22;15077;49.704;9.908;2023-07-24T05:32:58;22.30;58.30
27671;DHT22;15077;49.704;9.908;2023-07-24T05:35:24;22.40;58.50
27671;DHT22;15077;49.704;9.908;2023-07-24T05:37:50;22.50;58.50
27671;DHT22;15077;49.704;9.908;2023-07-24T05:40:16;22.50;58.50
27671;DHT22;15077;49.704;9.908;2023-07-24T05:42:41;22.60;58.70
27671;DHT22;15077;49.704;9.908;2023-07-24T05:45:09;22.70;58.70
27671;DHT22;15077;49.704;9.908;2023-07-24T05:47:40;22.80;58.70
27671;DHT22;15077;49.704;9.908;2023-07-24T05:50:06;22.90;58.70
27671;DHT22;15077;49.704;9.908;2023-07-24T05:52:32;23.00;59.10
27671;DHT22;15077;49.704;9.908;2023-07-24T05:54:57;23.10;59.00
27671;DHT22;15077;49.704;9.908;2023-07-24T05:57:23;23.20;59.10
27671;DHT22;15077;49.704;9.908;2023-07-24T05:59:49;23.20;58.90
27671;DHT22;15077;49.704;9.908;2023-07-24T06:02:17;23.30;58.80
27671;DHT22;15077;49.704;9.908;2023-07-24T06:04:43;23.30;58.60
27671;DHT22;15077;49.704;9.908;2023-07-24T06:07:09;23.40;58.60
27671;DHT22;15077;49.704;9.908;2023-07-24T06:09:34;23.40;58.60
27671;DHT22;15077;49.704;9.908;2023-07-24T06:12:00;23.50;58.60
27671;DHT22;15077;49.704;9.908;2023-07-24T06:14:26;23.50;58.50
27671;DHT22;15077;49.704;9.908;2023-07-24T06:16:51;23.60;58.40
27671;DHT22;15077;49.704;9.908;2023-07-24T06:19:17;23.60;58.30
27671;DHT22;15077;49.704;9.908;2023-07-24T06:21:43;23.70;58.20
27671;DHT22;15077;49.704;9.908;2023-07-24T06:24:08;23.70;58.20
27671;DHT22;15077;49.704;9.908;2023-07-24T06:26:37;23.80;58.30
27671;DHT22;15077;49.704;9.908;2023-07-24T06:29:04;23.80;58.20
27671;DHT22;15077;49.704;9.908;2023-07-24T06:31:30;23.80;58.10
27671;DHT22;15077;49.704;9.908;2023-07-24T06:33:55;23.80;58.00
27671;DHT22;15077;49.704;9.908;2023-07-24T06:36:21;23.80;58.00
27671;DHT22;15077;49.704;9.908;2023-07-24T06:38:47;23.80;58.00
27671;DHT22;15077;49.704;9.908;2023-07-24T06:41:16;23.80;57.90
27671;DHT22;15077;49.704;9.908;2023-07-24T06:43:42;23.80;58.00
27671;DHT22;15077;49.704;9.908;2023-07-24T06:46:08;23.90;58.00
27671;DHT22;15077;49.704;9.908;2023-07-24T06:48:34;23.90;58.00
27671;DHT22;15077;49.704;9.908;2023-07-24T06:51:00;23.90;58.10
27671;DHT22;15077;49.704;9.908;2023-07-24T06:53:25;23.90;58.00
27671;DHT22;15077;49.704;9.908;2023-07-24T06:55:51;23.90;58.00
27671;DHT22;15077;49.704;9.908;2023-07-24T06:58:17;23.90;58.00
27671;DHT22;15077;49.704;9.908;2023-07-24T07:00:42;23.90;58.00
27671;DHT22;15077;49.704;9.908;2023-07-24T07:03:08;23.90;58.20
27671;DHT22;15077;49.704;9.908;2023-07-24T07:05:34;24.00;58.20
27671;DHT22;15077;49.704;9.908;2023-07-24T07:08:00;24.00;58.10
27671;DHT22;15077;49.704;9.908;2023-07-24T07:10:25;24.00;58.10
27671;DHT22;15077;49.704;9.908;2023-07-24T07:12:51;24.10;58.30
27671;DHT22;15077;49.704;9.908;2023-07-24T07:15:17;24.10;58.30
27671;DHT22;15077;49.704;9.908;2023-07-24T07:17:42;24.10;58.20
27671;DHT22;15077;49.704;9.908;2023-07-24T07:20:08;24.10;58.30
27671;DHT22;15077;49.704;9.908;2023-07-24T07:22:34;24.10;58.30
27671;DHT22;15077;49.704;9.908;2023-07-24T07:25:00;24.20;58.40
27671;DHT22;15077;49.704;9.908;2023-07-24T07:27:26;24.20;58.20
27671;DHT22;15077;49.704;9.908;2023-07-24T07:29:51;24.20;58.20
27671;DHT22;15077;49.704;9.908;2023-07-24T07:32:17;24.20;58.10
27671;DHT22;15077;49.704;9.908;2023-07-24T07:34:43;24.30;58.40
27671;DHT22;15077;49.704;9.908;2023-07-24T07:37:09;24.30;58.20
27671;DHT22;15077;49.704;9.908;2023-07-24T07:39:34;24.40;58.30
27671;DHT22;15077;49.704;9.908;2023-07-24T07:42:00;24.40;59.00
27671;DHT22;15077;49.704;9.908;2023-07-24T07:44:26;24.40;58.10
27671;DHT22;15077;49.704;9.908;2023-07-24T07:46:52;24.50;58.00
27671;DHT22;15077;49.704;9.908;2023-07-24T07:49:17;24.50;58.10
27671;DHT22;15077;49.704;9.908;2023-07-24T07:51:43;24.50;58.10
27671;DHT22;15077;49.704;9.908;2023-07-24T07:54:09;24.60;58.10
27671;DHT22;15077;49.704;9.908;2023-07-24T07:56:35;24.60;58.10
27671;DHT22;15077;49.704;9.908;2023-07-24T07:59:00;24.70;57.90
27671;DHT22;15077;49.704;9.908;2023-07-24T08:01:26;24.70;57.70
27671;DHT22;15077;49.704;9.908;2023-07-24T08:03:52;24.80;57.60
27671;DHT22;15077;49.704;9.908;2023-07-24T08:06:18;24.90;57.40
27671;DHT22;15077;49.704;9.908;2023-07-24T08:08:43;24.90;57.30
27671;DHT22;15077;49.704;9.908;2023-07-24T08:11:09;25.00;57.20
27671;DHT22;15077;49.704;9.908;2023-07-24T08:13:35;25.00;57.10
27671;DHT22;15077;49.704;9.908;2023-07-24T08:16:00;25.10;56.80
27671;DHT22;15077;49.704;9.908;2023-07-24T08:18:29;25.10;56.40
27671;DHT22;15077;49.704;9.908;2023-07-24T08:20:55;25.10;56.80
27671;DHT22;15077;49.704;9.908;2023-07-24T08:23:21;25.20;56.30
27671;DHT22;15077;49.704;9.908;2023-07-24T08:25:54;25.20;56.30
27671;DHT22;15077;49.704;9.908;2023-07-24T08:28:20;25.20;56.00
27671;DHT22;15077;49.704;9.908;2023-07-24T08:30:56;25.30;56.10
27671;DHT22;15077;49.704;9.908;2023-07-24T08:33:23;25.30;55.70
27671;DHT22;15077;49.704;9.908;2023-07-24T08:36:09;25.30;55.60
27671;DHT22;15077;49.704;9.908;2023-07-24T08:38:37;25.30;55.90
27671;DHT22;15077;49.704;9.908;2023-07-24T08:41:14;25.30;56.90
27671;DHT22;15077;49.704;9.908;2023-07-24T08:43:42;25.30;57.20
27671;DHT22;15077;49.704;9.908;2023-07-24T08:46:09;25.20;57.30
27671;DHT22;15077;49.704;9.908;2023-07-24T08:48:39;25.10;57.40
27671;DHT22;15077;49.704;9.908;2023-07-24T08:51:09;25.00;57.70
27671;DHT22;15077;49.704;9.908;2023-07-24T08:53:38;24.90;58.00
27671;DHT22;15077;49.704;9.908;2023-07-24T08:56:06;24.80;58.30
27671;DHT22;15077;49.704;9.908;2023-07-24T08:58:33;24.70;58.70
27671;DHT22;15077;49.704;9.908;2023-07-24T09:01:01;24.60;59.10
27671;DHT22;15077;49.704;9.908;2023-07-24T09:03:28;24.50;59.40
27671;DHT22;15077;49.704;9.908;2023-07-24T09:05:55;24.40;59.60
27671;DHT22;15077;49.704;9.908;2023-07-24T09:08:35;24.30;59.70
27671;DHT22;15077;49.704;9.908;2023-07-24T09:11:05;24.20;60.80
27671;DHT22;15077;49.704;9.908;2023-07-24T09:13:32;24.20;60.30
27671;DHT22;15077;49.704;9.908;2023-07-24T09:16:00;24.10;60.70
27671;DHT22;15077;49.704;9.908;2023-07-24T09:18:27;24.00;61.10
27671;DHT22;15077;49.704;9.908;2023-07-24T09:21:03;23.90;61.10
27671;DHT22;15077;49.704;9.908;2023-07-24T09:23:29;23.80;61.30
27671;DHT22;15077;49.704;9.908;2023-07-24T09:25:55;23.70;61.60
27671;DHT22;15077;49.704;9.908;2023-07-24T09:28:21;23.70;61.80
27671;DHT22;15077;49.704;9.908;2023-07-24T09:30:58;23.60;61.90
27671;DHT22;15077;49.704;9.908;2023-07-24T09:33:36;23.60;62.40
27671;DHT22;15077;49.704;9.908;2023-07-24T09:36:05;23.60;62.40
27671;DHT22;15077;49.704;9.908;2023-07-24T09:38:34;23.60;62.40
27671;DHT22;15077;49.704;9.908;2023-07-24T09:41:01;23.60;62.80
27671;DHT22;15077;49.704;9.908;2023-07-24T09:43:30;23.70;63.30
27671;DHT22;15077;49.704;9.908;2023-07-24T09:45:57;23.70;63.30
27671;DHT22;15077;49.704;9.908;2023-07-24T09:48:25;23.80;63.20
27671;DHT22;15077;49.704;9.908;2023-07-24T09:50:57;23.80;63.60
27671;DHT22;15077;49.704;9.908;2023-07-24T09:53:48;23.90;63.40
27671;DHT22;15077;49.704;9.908;2023-07-24T09:56:17;24.00;63.60
27671;DHT22;15077;49.704;9.908;2023-07-24T09:58:44;24.10;63.80
27671;DHT22;15077;49.704;9.908;2023-07-24T10:01:10;24.10;64.00
27671;DHT22;15077;49.704;9.908;2023-07-24T10:03:45;24.10;64.30
27671;DHT22;15077;49.704;9.908;2023-07-24T10:06:12;24.20;64.50
27671;DHT22;15077;49.704;9.908;2023-07-24T10:08:40;24.30;64.40
27671;DHT22;15077;49.704;9.908;2023-07-24T10:11:13;24.40;64.70
27671;DHT22;15077;49.704;9.908;2023-07-24T10:13:43;24.50;65.20
27671;DHT22;15077;49.704;9.908;2023-07-24T10:16:09;24.70;64.60
27671;DHT22;15077;49.704;9.908;2023-07-24T10:18:41;24.80;64.50
27671;DHT22;15077;49.704;9.908;2023-07-24T10:21:09;24.80;64.40
27671;DHT22;15077;49.704;9.908;2023-07-24T10:23:37;24.90;64.10
27671;DHT22;15077;49.704;9.908;2023-07-24T10:26:07;24.90;64.10
27671;DHT22;15077;49.704;9.908;2023-07-24T10:28:39;25.00;64.10
27671;DHT22;15077;49.704;9.908;2023-07-24T10:31:26;25.10;63.90
27671;DHT22;15077;49.704;9.908;2023-07-24T10:33:53;25.20;64.40
27671;DHT22;15077;49.704;9.908;2023-07-24T10:36:21;25.20;63.90
27671;DHT22;15077;49.704;9.908;2023-07-24T10:38:53;25.20;63.60
27671;DHT22;15077;49.704;9.908;2023-07-24T10:41:20;25.20;63.40
27671;DHT22;15077;49.704;9.908;2023-07-24T10:43:48;25.30;63.00
27671;DHT22;15077;49.704;9.908;2023-07-24T10:46:17;25.40;63.10
27671;DHT22;15077;49.704;9.908;2023-07-24T10:48:48;25.40;63.20
27671;DHT22;15077;49.704;9.908;2023-07-24T10:51:16;25.40;63.00
27671;DHT22;15077;49.704;9.908;2023-07-24T10:53:49;25.30;62.80
27671;DHT22;15077;49.704;9.908;2023-07-24T10:56:16;25.30;63.00
27671;DHT22;15077;49.704;9.908;2023-07-24T10:58:42;25.30;62.90
27671;DHT22;15077;49.704;9.908;2023-07-24T11:01:09;25.40;63.10
27671;DHT22;15077;49.704;9.908;2023-07-24T11:03:36;25.40;62.90
27671;DHT22;15077;49.704;9.908;2023-07-24T11:06:16;25.30;62.70
27671;DHT22;15077;49.704;9.908;2023-07-24T11:08:55;25.40;62.80
27671;DHT22;15077;49.704;9.908;2023-07-24T11:11:28;25.40;62.70
27671;DHT22;15077;49.704;9.908;2023-07-24T11:14:03;25.40;62.70
27671;DHT22;15077;49.704;9.908;2023-07-24T11:16:30;25.40;62.80
27671;DHT22;15077;49.704;9.908;2023-07-24T11:18:57;25.40;62.90
27671;DHT22;15077;49.704;9.908;2023-07-24T11:21:23;25.40;62.90
27671;DHT22;15077;49.704;9.908;2023-07-24T11:23:51;25.40;62.70
27671;DHT22;15077;49.704;9.908;2023-07-24T11:26:19;25.40;62.90
27671;DHT22;15077;49.704;9.908;2023-07-24T11:28:46;25.40;62.70
27671;DHT22;15077;49.704;9.908;2023-07-24T11:31:13;25.50;62.90
27671;DHT22;15077;49.704;9.908;2023-07-24T11:33:41;25.40;62.50
27671;DHT22;15077;49.704;9.908;2023-07-24T11:36:09;25.50;62.40
27671;DHT22;15077;49.704;9.908;2023-07-24T11:38:36;25.50;62.50
27671;DHT22;15077;49.704;9.908;2023-07-24T11:41:04;25.60;62.50
27671;DHT22;15077;49.704;9.908;2023-07-24T11:43:30;25.60;62.40
27671;DHT22;15077;49.704;9.908;2023-07-24T11:45:56;25.60;62.60
27671;DHT22;15077;49.704;9.908;2023-07-24T11:48:23;25.50;62.20
27671;DHT22;15077;49.704;9.908;2023-07-24T11:50:52;25.60;62.10
27671;DHT22;15077;49.704;9.908;2023-07-24T11:55:53;25.50;62.00
27671;DHT22;15077;49.704;9.908;2023-07-24T11:58:25;25.40;61.90
27671;DHT22;15077;49.704;9.908;2023-07-24T12:00:52;25.40;62.10
27671;DHT22;15077;49.704;9.908;2023-07-24T12:03:22;25.40;62.90
27671;DHT22;15077;49.704;9.908;2023-07-24T12:05:50;25.40;62.50
27671;DHT22;15077;49.704;9.908;2023-07-24T12:08:17;25.40;62.60
27671;DHT22;15077;49.704;9.908;2023-07-24T12:10:49;25.40;62.50
27671;DHT22;15077;49.704;9.908;2023-07-24T12:13:16;25.40;62.70
27671;DHT22;15077;49.704;9.908;2023-07-24T12:15:43;25.40;62.80
27671;DHT22;15077;49.704;9.908;2023-07-24T12:18:08;25.40;62.80
27671;DHT22;15077;49.704;9.908;2023-07-24T12:20:34;25.50;62.60
27671;DHT22;15077;49.704;9.908;2023-07-24T12:23:00;25.50;62.40
27671;DHT22;15077;49.704;9.908;2023-07-24T12:25:26;25.50;62.00
27671;DHT22;15077;49.704;9.908;2023-07-24T12:27:52;25.50;62.00
27671;DHT22;15077;49.704;9.908;2023-07-24T12:30:18;25.50;62.20
27671;DHT22;15077;49.704;9.908;2023-07-24T12:32:44;25.50;62.10
27671;DHT22;15077;49.704;9.908;2023-07-24T12:35:10;25.50;62.20
27671;DHT22;15077;49.704;9.908;2023-07-24T12:37:36;25.50;62.30
27671;DHT22;15077;49.704;9.908;2023-07-24T12:40:02;25.60;62.30
27671;DHT22;15077;49.704;9.908;2023-07-24T12:42:28;25.60;62.60
27671;DHT22;15077;49.704;9.908;2023-07-24T12:44:54;25.70;62.70
27671;DHT22;15077;49.704;9.908;2023-07-24T12:47:20;25.80;62.30
27671;DHT22;15077;49.704;9.908;2023-07-24T12:49:46;25.90;62.40
27671;DHT22;15077;49.704;9.908;2023-07-24T12:52:11;25.90;62.20
27671;DHT22;15077;49.704;9.908;2023-07-24T12:54:37;26.10;62.10
27671;DHT22;15077;49.704;9.908;2023-07-24T12:57:03;26.10;61.70
27671;DHT22;15077;49.704;9.908;2023-07-24T12:59:29;26.20;62.60
27671;DHT22;15077;49.704;9.908;2023-07-24T13:01:55;26.30;62.30
27671;DHT22;15077;49.704;9.908;2023-07-24T13:04:22;26.40;62.00
27671;DHT22;15077;49.704;9.908;2023-07-24T13:06:49;26.50;61.80
27671;DHT22;15077;49.704;9.908;2023-07-24T13:09:14;26.60;61.20
27671;DHT22;15077;49.704;9.908;2023-07-24T13:11:40;26.60;61.00
27671;DHT22;15077;49.704;9.908;2023-07-24T13:14:06;26.70;60.80
27671;DHT22;15077;49.704;9.908;2023-07-24T13:16:32;26.80;60.70
27671;DHT22;15077;49.704;9.908;2023-07-24T13:18:58;26.80;60.40
27671;DHT22;15077;49.704;9.908;2023-07-24T13:21:23;26.80;60.10
27671;DHT22;15077;49.704;9.908;2023-07-24T13:23:49;26.80;59.60
27671;DHT22;15077;49.704;9.908;2023-07-24T13:26:15;26.80;59.90
27671;DHT22;15077;49.704;9.908;2023-07-24T13:28:41;26.80;60.00
27671;DHT22;15077;49.704;9.908;2023-07-24T13:31:16;26.80;59.90
27671;DHT22;15077;49.704;9.908;2023-07-24T13:33:44;26.80;59.80
27671;DHT22;15077;49.704;9.908;2023-07-24T13:36:10;26.80;59.70
27671;DHT22;15077;49.704;9.908;2023-07-24T13:38:36;26.80;59.30
27671;DHT22;15077;49.704;9.908;2023-07-24T13:41:03;26.90;59.30
27671;DHT22;15077;49.704;9.908;2023-07-24T13:43:30;26.80;59.30
27671;DHT22;15077;49.704;9.908;2023-07-24T13:45:57;26.80;59.30
27671;DHT22;15077;49.704;9.908;2023-07-24T13:48:24;26.80;58.90
27671;DHT22;15077;49.704;9.908;2023-07-24T13:50:52;26.80;58.90
27671;DHT22;15077;49.704;9.908;2023-07-24T13:53:18;26.80;58.90
27671;DHT22;15077;49.704;9.908;2023-07-24T13:55:44;26.90;59.10
27671;DHT22;15077;49.704;9.908;2023-07-24T13:58:10;26.90;59.30
27671;DHT22;15077;49.704;9.908;2023-07-24T14:00:35;27.00;59.30
27671;DHT22;15077;49.704;9.908;2023-07-24T14:03:01;27.00;59.10
27671;DHT22;15077;49.704;9.908;2023-07-24T14:05:27;27.10;58.90
27671;DHT22;15077;49.704;9.908;2023-07-24T14:07:54;27.10;58.80
27671;DHT22;15077;49.704;9.908;2023-07-24T14:10:20;27.20;58.50
27671;DHT22;15077;49.704;9.908;2023-07-24T14:12:45;27.20;58.40
27671;DHT22;15077;49.704;9.908;2023-07-24T14:15:12;27.20;58.20
27671;DHT22;15077;49.704;9.908;2023-07-24T14:17:37;27.20;58.20
27671;DHT22;15077;49.704;9.908;2023-07-24T14:20:04;27.20;57.90
27671;DHT22;15077;49.704;9.908;2023-07-24T14:22:31;27.20;57.90
27671;DHT22;15077;49.704;9.908;2023-07-24T14:24:56;27.20;58.20
27671;DHT22;15077;49.704;9.908;2023-07-24T14:27:22;27.30;58.40
27671;DHT22;15077;49.704;9.908;2023-07-24T14:29:48;27.30;58.30
27671;DHT22;15077;49.704;9.908;2023-07-24T14:32:13;27.40;58.10
27671;DHT22;15077;49.704;9.908;2023-07-24T14:34:41;27.40;58.10
27671;DHT22;15077;49.704;9.908;2023-07-24T14:37:07;27.50;57.70
27671;DHT22;15077;49.704;9.908;2023-07-24T14:39:33;27.60;57.10
27671;DHT22;15077;49.704;9.908;2023-07-24T14:41:59;27.70;57.40
27671;DHT22;15077;49.704;9.908;2023-07-24T14:44:25;27.70;56.90
27671;DHT22;15077;49.704;9.908;2023-07-24T14:46:51;27.80;56.30
27671;DHT22;15077;49.704;9.908;2023-07-24T14:49:17;27.80;56.20
27671;DHT22;15077;49.704;9.908;2023-07-24T14:51:43;27.90;56.50
27671;DHT22;15077;49.704;9.908;2023-07-24T14:54:08;27.90;56.20
27671;DHT22;15077;49.704;9.908;2023-07-24T14:56:34;28.00;56.50
27671;DHT22;15077;49.704;9.908;2023-07-24T14:59:00;28.10;56.40
27671;DHT22;15077;49.704;9.908;2023-07-24T15:01:26;28.10;55.90
27671;DHT22;15077;49.704;9.908;2023-07-24T15:03:55;28.20;55.90
27671;DHT22;15077;49.704;9.908;2023-07-24T15:06:22;28.20;55.60
27671;DHT22;15077;49.704;9.908;2023-07-24T15:08:49;28.30;55.10
27671;DHT22;15077;49.704;9.908;2023-07-24T15:11:19;28.30;54.80
27671;DHT22;15077;49.704;9.908;2023-07-24T15:13:45;28.30;54.60
27671;DHT22;15077;49.704;9.908;2023-07-24T15:16:11;28.30;54.80
27671;DHT22;15077;49.704;9.908;2023-07-24T15:18:37;28.30;54.90
27671;DHT22;15077;49.704;9.908;2023-07-24T15:21:03;28.30;54.70
27671;DHT22;15077;49.704;9.908;2023-07-24T15:23:29;28.40;54.60
27671;DHT22;15077;49.704;9.908;2023-07-24T15:25:55;28.30;54.40
27671;DHT22;15077;49.704;9.908;2023-07-24T15:28:21;28.30;54.50
27671;DHT22;15077;49.704;9.908;2023-07-24T15:30:48;28.30;54.70
27671;DHT22;15077;49.704;9.908;2023-07-24T15:33:14;28.20;54.40
27671;DHT22;15077;49.704;9.908;2023-07-24T15:35:40;28.20;54.40